createdAt,value
2018-10-17T00:00:27.874Z,76.96
2018-10-17T00:02:56.165Z,77.56
2018-10-17T00:05:24.435Z,77.20
2018-10-17T00:07:53.099Z,77.05
2018-10-17T00:10:21.390Z,77.77
2018-10-17T00:12:50.182Z,77.55
2018-10-17T00:15:18.882Z,77.92
2018-10-17T00:17:47.159Z,77.71
2018-10-17T00:20:15.470Z,77.90
2018-10-17T00:22:43.811Z,77.99
2018-10-17T00:25:12.356Z,77.59
2018-10-17T00:27:40.862Z,77.32
2018-10-17T00:30:11.178Z,77.48
2018-10-17T00:32:40.109Z,77.59
2018-10-17T00:35:09.169Z,77.79
2018-10-17T00:37:37.601Z,78.42
2018-10-17T00:40:06.099Z,78.20
2018-10-17T00:42:34.630Z,78.17
2018-10-17T00:45:03.028Z,78.64
2018-10-17T00:47:31.615Z,78.66
2018-10-17T00:49:59.974Z,78.98
2018-10-17T00:52:28.255Z,79.68
2018-10-17T00:54:56.942Z,79.75
2018-10-17T00:57:25.447Z,79.33
2018-10-17T00:59:53.741Z,79.23
2018-10-17T01:02:22.718Z,78.91
2018-10-17T01:04:51.579Z,79.32
2018-10-17T01:07:20.713Z,79.60
2018-10-17T01:09:49.038Z,79.42
2018-10-17T01:12:17.322Z,80.05
2018-10-17T01:14:45.932Z,80.02
2018-10-17T01:17:14.291Z,80.46
2018-10-17T01:19:42.736Z,81.17
2018-10-17T01:22:11.332Z,81.58
2018-10-17T01:24:39.854Z,82.15
2018-10-17T01:27:08.476Z,81.73
2018-10-17T01:29:36.895Z,81.67
2018-10-17T01:32:05.591Z,80.82
2018-10-17T01:34:34.358Z,80.21
2018-10-17T01:37:02.868Z,80.05
2018-10-17T01:39:32.011Z,81.29
2018-10-17T01:42:00.290Z,81.82
2018-10-17T01:44:28.914Z,81.96
2018-10-17T01:46:57.206Z,81.91
2018-10-17T01:49:25.821Z,82.52
2018-10-17T01:51:54.506Z,82.31
2018-10-17T01:54:23.006Z,81.84
2018-10-17T01:56:51.725Z,81.65
2018-10-17T01:59:20.187Z,81.70
2018-10-17T02:01:48.475Z,82.22
2018-10-17T02:04:16.754Z,82.76
2018-10-17T02:06:45.026Z,81.93
2018-10-17T02:09:13.463Z,82.28
2018-10-17T02:11:41.898Z,82.24
2018-10-17T02:14:10.187Z,81.68
2018-10-17T02:16:38.496Z,81.18
2018-10-17T02:19:07.153Z,81.62
2018-10-17T02:21:35.600Z,81.67
2018-10-17T02:24:04.398Z,81.55
2018-10-17T02:26:32.718Z,81.42
2018-10-17T02:29:01.033Z,81.49
2018-10-17T02:31:29.476Z,82.25
2018-10-17T02:33:57.759Z,81.76
2018-10-17T02:36:26.070Z,82.33
2018-10-17T02:38:54.504Z,82.54
2018-10-17T02:41:22.809Z,82.97
2018-10-17T02:43:51.098Z,82.76
2018-10-17T02:46:19.820Z,83.50
2018-10-17T02:48:48.491Z,83.94
2018-10-17T02:51:16.749Z,83.65
2018-10-17T02:53:45.096Z,83.66
2018-10-17T02:56:13.407Z,83.57
2018-10-17T02:58:41.692Z,83.41
2018-10-17T03:01:10.093Z,83.71
2018-10-17T03:03:39.447Z,83.30
2018-10-17T03:06:07.731Z,82.39
2018-10-17T03:08:36.162Z,83.12
2018-10-17T03:11:05.577Z,83.05
2018-10-17T03:13:34.034Z,82.88
2018-10-17T03:16:03.774Z,83.05
2018-10-17T03:18:32.895Z,83.20
2018-10-17T03:21:01.174Z,83.26
2018-10-17T03:23:29.466Z,83.73
2018-10-17T03:25:57.827Z,83.46
2018-10-17T03:28:26.339Z,83.11
2018-10-17T03:30:54.798Z,83.24
2018-10-17T03:33:23.271Z,83.20
2018-10-17T03:35:51.626Z,82.81
2018-10-17T03:38:20.116Z,82.58
2018-10-17T03:40:48.732Z,82.62
2018-10-17T03:43:17.286Z,82.50
2018-10-17T03:45:46.040Z,82.58
2018-10-17T03:48:14.344Z,83.19
2018-10-17T03:50:42.742Z,82.82
2018-10-17T03:53:11.079Z,83.27
2018-10-17T03:55:39.544Z,83.33
2018-10-17T03:58:07.873Z,83.42
2018-10-17T04:00:36.259Z,82.98
2018-10-17T04:03:05.725Z,82.00
2018-10-17T04:05:34.227Z,80.44
2018-10-17T04:08:02.506Z,81.21
2018-10-17T04:10:30.779Z,80.10
2018-10-17T04:12:59.077Z,80.03
2018-10-17T04:15:27.669Z,79.07
2018-10-17T04:17:56.049Z,79.48
2018-10-17T04:20:24.347Z,79.19
2018-10-17T04:22:55.280Z,78.35
2018-10-17T04:25:23.945Z,79.08
2018-10-17T04:27:53.163Z,78.92
2018-10-17T04:30:21.509Z,77.61
2018-10-17T04:32:49.842Z,78.58
2018-10-17T04:35:18.719Z,78.58
2018-10-17T04:37:47.754Z,78.06
2018-10-17T04:40:16.070Z,77.97
2018-10-17T04:42:44.490Z,79.00
2018-10-17T04:45:12.892Z,79.04
2018-10-17T04:47:41.248Z,79.46
2018-10-17T04:50:12.032Z,78.92
2018-10-17T04:52:40.718Z,79.06
2018-10-17T04:55:10.218Z,79.39
2018-10-17T04:57:38.702Z,80.04
2018-10-17T05:00:10.491Z,79.77
2018-10-17T05:02:39.363Z,80.43
2018-10-17T05:05:08.118Z,79.63
2018-10-17T05:07:36.585Z,79.20
2018-10-17T05:10:05.165Z,79.47
2018-10-17T05:12:33.812Z,79.69
2018-10-17T05:15:02.105Z,79.58
2018-10-17T05:17:30.665Z,80.77
2018-10-17T05:19:59.431Z,80.93
2018-10-17T05:22:27.744Z,81.36
2018-10-17T05:24:56.104Z,80.43
2018-10-17T05:27:24.619Z,80.34
2018-10-17T05:29:53.081Z,80.07
2018-10-17T05:32:21.458Z,79.56
2018-10-17T05:34:49.884Z,78.71
2018-10-17T05:37:18.631Z,78.56
2018-10-17T05:39:47.095Z,78.73
2018-10-17T05:42:15.431Z,78.24
2018-10-17T05:44:44.049Z,77.64
2018-10-17T05:47:12.627Z,77.90
2018-10-17T05:49:41.248Z,77.32
2018-10-17T05:52:09.660Z,77.40
2018-10-17T05:54:37.978Z,76.47
2018-10-17T05:57:06.359Z,76.07
2018-10-17T05:59:34.655Z,76.68
2018-10-17T06:02:07.763Z,76.49
2018-10-17T06:04:36.247Z,76.81
2018-10-17T06:07:04.772Z,76.65
2018-10-17T06:09:33.208Z,77.10
2018-10-17T06:12:01.635Z,77.46
2018-10-17T06:14:30.015Z,77.38
2018-10-17T06:16:58.430Z,77.70
2018-10-17T06:19:26.874Z,77.26
2018-10-17T06:21:55.182Z,77.35
2018-10-17T06:24:23.570Z,74.90
2018-10-17T06:26:51.923Z,70.30
2018-10-17T06:29:20.332Z,66.73
2018-10-17T06:31:48.662Z,62.71
2018-10-17T06:34:17.108Z,60.01
2018-10-17T06:36:45.669Z,57.12
2018-10-17T06:39:13.958Z,55.75
2018-10-17T06:41:42.323Z,53.69
2018-10-17T06:44:10.882Z,52.86
2018-10-17T06:46:39.307Z,49.22
2018-10-17T06:49:08.096Z,47.12
2018-10-17T06:51:36.544Z,44.91
2018-10-17T06:54:05.129Z,43.85
2018-10-17T06:56:33.998Z,43.54
2018-10-17T06:59:02.494Z,43.88
2018-10-17T07:01:31.018Z,43.65
2018-10-17T07:04:00.074Z,43.81
2018-10-17T07:06:28.383Z,43.18
2018-10-17T07:08:56.702Z,42.33
2018-10-17T07:11:24.983Z,41.79
2018-10-17T07:13:53.542Z,41.35
2018-10-17T07:16:22.303Z,40.56
2018-10-17T07:18:50.602Z,40.50
2018-10-17T07:21:18.952Z,39.78
2018-10-17T07:23:47.258Z,38.21
2018-10-17T07:26:15.608Z,36.52
2018-10-17T07:28:44.056Z,36.70
2018-10-17T07:31:12.610Z,36.39
2018-10-17T07:33:41.172Z,35.52
2018-10-17T07:36:09.511Z,36.43
2018-10-17T07:38:37.999Z,36.02
2018-10-17T07:41:06.756Z,37.95
2018-10-17T07:43:35.074Z,37.62
2018-10-17T07:46:03.454Z,38.58
2018-10-17T07:48:31.734Z,38.37
2018-10-17T07:51:00.347Z,37.98
2018-10-17T07:53:28.682Z,37.42
2018-10-17T07:55:57.170Z,36.53
2018-10-17T07:58:25.518Z,35.82
2018-10-17T08:00:54.179Z,34.07
2018-10-17T08:03:22.875Z,32.95
2018-10-17T08:05:51.995Z,34.15
2018-10-17T08:08:20.321Z,34.10
2018-10-17T08:10:48.663Z,35.70
2018-10-17T08:13:16.968Z,35.62
2018-10-17T08:15:45.443Z,38.19
2018-10-17T08:18:14.212Z,38.71
2018-10-17T08:20:42.663Z,40.39
2018-10-17T08:23:10.982Z,41.16
2018-10-17T08:25:39.288Z,43.09
2018-10-17T08:28:07.610Z,42.47
2018-10-17T08:30:36.030Z,43.25
2018-10-17T08:33:04.488Z,43.96
2018-10-17T08:35:32.906Z,43.90
2018-10-17T08:38:01.636Z,45.36
2018-10-17T08:40:30.154Z,46.05
2018-10-17T08:42:58.557Z,44.49
2018-10-17T08:45:26.982Z,44.26
2018-10-17T08:47:55.410Z,42.61
2018-10-17T08:50:23.722Z,42.58
2018-10-17T08:52:52.003Z,42.15
2018-10-17T08:55:20.346Z,42.26
2018-10-17T08:57:48.674Z,42.28
2018-10-17T09:00:17.529Z,42.00
2018-10-17T09:02:46.279Z,43.45
2018-10-17T09:05:14.694Z,43.08
2018-10-17T09:07:43.079Z,43.15
2018-10-17T09:10:11.952Z,42.58
2018-10-17T09:12:40.281Z,43.14
2018-10-17T09:15:08.779Z,42.04
2018-10-17T09:17:37.246Z,42.96
2018-10-17T09:20:07.853Z,42.87
2018-10-17T09:22:36.207Z,42.73
2018-10-17T09:25:05.155Z,43.23
2018-10-17T09:27:33.804Z,42.70
2018-10-17T09:30:02.175Z,43.00
2018-10-17T09:32:30.663Z,41.46
2018-10-17T09:34:59.107Z,41.70
2018-10-17T09:37:27.711Z,41.96
2018-10-17T09:39:56.105Z,41.80
2018-10-17T09:42:24.578Z,43.10
2018-10-17T09:44:53.182Z,43.86
2018-10-17T09:47:21.483Z,43.66
2018-10-17T09:49:50.147Z,44.35
2018-10-17T09:52:18.670Z,44.03
2018-10-17T09:54:47.077Z,43.94
2018-10-17T09:57:15.362Z,43.12
2018-10-17T09:59:43.688Z,43.35
2018-10-17T10:02:12.034Z,43.71
2018-10-17T10:04:40.551Z,43.47
2018-10-17T10:07:08.999Z,43.81
2018-10-17T10:12:05.190Z,42.86
2018-10-17T10:14:33.684Z,42.86
2018-10-17T10:17:02.089Z,41.87
2018-10-17T10:19:30.542Z,42.44
2018-10-17T10:21:58.981Z,41.84
2018-10-17T10:24:27.524Z,40.42
2018-10-17T10:26:56.253Z,41.42
2018-10-17T10:29:31.360Z,42.69
2018-10-17T10:31:59.958Z,41.91
2018-10-17T10:34:28.298Z,42.90
2018-10-17T10:36:56.594Z,42.71
2018-10-17T10:39:24.907Z,42.92
2018-10-17T10:41:53.219Z,42.23
2018-10-17T10:44:21.734Z,42.83
2018-10-17T10:46:50.076Z,42.06
2018-10-17T10:49:18.557Z,42.68
2018-10-17T10:51:47.025Z,43.62
2018-10-17T10:54:15.493Z,41.94
2018-10-17T10:56:43.890Z,42.59
2018-10-17T10:59:12.189Z,43.03
2018-10-17T11:01:41.072Z,42.35
2018-10-17T11:04:09.447Z,42.40
2018-10-17T11:06:37.870Z,43.95
2018-10-17T11:09:07.576Z,42.45
2018-10-17T11:11:36.608Z,42.70
2018-10-17T11:14:05.111Z,42.56
2018-10-17T11:16:33.462Z,42.14
2018-10-17T11:19:02.393Z,41.53
2018-10-17T11:21:31.274Z,40.14
2018-10-17T11:23:59.726Z,40.76
2018-10-17T11:26:28.739Z,41.44
2018-10-17T11:28:57.687Z,40.69
2018-10-17T11:31:26.235Z,40.26
2018-10-17T11:33:55.291Z,40.54
2018-10-17T11:36:23.590Z,40.66
2018-10-17T11:38:52.161Z,41.35
2018-10-17T11:41:20.944Z,40.89
2018-10-17T11:43:50.130Z,41.33
2018-10-17T11:46:18.485Z,40.95
2018-10-17T11:48:47.418Z,40.64
2018-10-17T11:51:16.460Z,40.27
2018-10-17T11:53:44.955Z,40.59
2018-10-17T11:56:13.306Z,40.96
2018-10-17T11:58:42.294Z,40.90
2018-10-17T12:01:11.266Z,40.77
2018-10-17T12:03:39.678Z,40.50
2018-10-17T12:06:08.747Z,40.33
2018-10-17T12:08:37.728Z,41.80
2018-10-17T12:11:06.277Z,40.74
2018-10-17T12:13:35.276Z,40.11
2018-10-17T12:16:03.610Z,40.98
2018-10-17T12:18:32.235Z,40.94
2018-10-17T12:21:00.731Z,40.37
2018-10-17T12:23:29.099Z,40.65
2018-10-17T12:25:58.065Z,40.45
2018-10-17T12:28:27.085Z,41.01
2018-10-17T12:30:55.493Z,40.69
2018-10-17T12:33:24.439Z,39.66
2018-10-17T12:35:53.436Z,40.92
2018-10-17T12:38:21.803Z,40.22
2018-10-17T12:40:50.603Z,39.51
2018-10-17T12:43:19.504Z,40.89
2018-10-17T12:45:48.436Z,39.77
2018-10-17T12:48:17.234Z,40.16
2018-10-17T12:50:46.735Z,38.55
2018-10-17T12:53:15.599Z,39.42
2018-10-17T12:55:44.866Z,38.78
2018-10-17T12:58:13.258Z,38.91
2018-10-17T13:00:41.722Z,38.37
2018-10-17T13:03:10.046Z,36.85
2018-10-17T13:05:38.334Z,37.64
2018-10-17T13:08:07.580Z,37.43
2018-10-17T13:10:36.238Z,37.98
2018-10-17T13:13:05.538Z,37.78
2018-10-17T13:15:34.350Z,37.25
2018-10-17T13:18:03.223Z,37.68
2018-10-17T13:20:31.518Z,37.24
2018-10-17T13:22:59.837Z,38.45
2018-10-17T13:25:28.293Z,37.63
2018-10-17T13:27:57.178Z,38.24
2018-10-17T13:30:26.053Z,38.09
2018-10-17T13:32:54.425Z,37.82
2018-10-17T13:35:22.772Z,37.62
2018-10-17T13:37:51.634Z,39.01
2018-10-17T13:40:19.924Z,38.32
2018-10-17T13:42:48.250Z,38.21
2018-10-17T13:45:16.535Z,38.59
2018-10-17T13:47:44.953Z,39.25
2018-10-17T13:50:13.861Z,38.41
2018-10-17T13:52:42.166Z,38.22
2018-10-17T13:55:11.075Z,39.17
2018-10-17T13:57:40.186Z,38.82
2018-10-17T14:00:10.889Z,39.30
2018-10-17T14:02:40.079Z,39.29
2018-10-17T14:05:08.683Z,39.75
2018-10-17T14:07:36.976Z,39.09
2018-10-17T14:10:05.455Z,39.11
2018-10-17T14:12:34.476Z,39.18
2018-10-17T14:15:03.236Z,40.47
2018-10-17T14:17:31.738Z,40.43
2018-10-17T14:20:00.863Z,40.92
2018-10-17T14:22:29.234Z,40.85
2018-10-17T14:24:57.641Z,40.60
2018-10-17T14:27:26.139Z,40.83
2018-10-17T14:29:58.439Z,40.95
2018-10-17T14:32:27.085Z,40.89
2018-10-17T14:34:55.433Z,41.47
2018-10-17T14:37:23.731Z,41.01
2018-10-17T14:39:52.212Z,41.58
2018-10-17T14:42:20.602Z,42.20
2018-10-17T14:44:49.046Z,42.03
2018-10-17T14:47:17.375Z,42.53
2018-10-17T14:49:45.900Z,43.30
2018-10-17T14:52:14.187Z,42.80
2018-10-17T14:54:42.507Z,43.53
2018-10-17T14:57:10.831Z,43.87
2018-10-17T14:59:39.146Z,43.17
2018-10-17T15:02:07.582Z,43.52
2018-10-17T15:04:35.928Z,44.29
2018-10-17T15:07:04.250Z,44.76
2018-10-17T15:09:32.566Z,44.61
2018-10-17T15:12:00.918Z,44.50
2018-10-17T15:14:29.307Z,45.27
2018-10-17T15:16:58.083Z,45.25
2018-10-17T15:19:26.663Z,45.59
2018-10-17T15:21:54.949Z,45.98
2018-10-17T15:24:23.230Z,46.00
2018-10-17T15:43:27.509Z,47.30
2018-10-17T15:48:53.779Z,46.67
2018-10-17T15:51:22.461Z,47.25
2018-10-17T15:53:51.244Z,47.47
2018-10-17T15:56:21.333Z,47.16
2018-10-17T15:58:50.989Z,47.64
2018-10-17T16:01:19.661Z,47.60
2018-10-17T16:03:48.879Z,47.88
2018-10-17T16:06:17.797Z,48.12
2018-10-17T16:08:53.118Z,48.58
2018-10-17T16:11:21.942Z,48.95
2018-10-17T16:13:50.913Z,49.44
2018-10-17T16:16:19.571Z,49.92
2018-10-17T16:18:48.215Z,50.12
2018-10-17T16:21:17.205Z,50.41
2018-10-17T16:23:45.922Z,50.66
2018-10-17T16:26:15.646Z,50.92
2018-10-17T16:28:45.026Z,51.50
2018-10-17T16:31:13.888Z,52.04
2018-10-17T16:33:42.696Z,52.48
2018-10-17T16:36:11.638Z,52.97
2018-10-17T16:38:40.600Z,53.31
2018-10-17T16:41:09.559Z,53.83
2018-10-17T16:43:39.942Z,54.75
2018-10-17T16:46:09.011Z,54.85
2018-10-17T16:48:37.722Z,55.02
2018-10-17T16:51:06.747Z,55.76
2018-10-17T16:53:35.554Z,55.92
2018-10-17T16:56:04.329Z,56.05
2018-10-17T16:58:33.098Z,56.80
2018-10-17T17:01:02.268Z,56.22
2018-10-17T17:03:31.027Z,57.03
2018-10-17T17:05:59.761Z,57.30
2018-10-17T17:08:28.438Z,57.13
2018-10-17T17:10:57.129Z,57.44
2018-10-17T17:13:25.822Z,57.53
2018-10-17T17:15:54.535Z,58.63
2018-10-17T17:18:23.275Z,58.10
2018-10-17T17:20:52.215Z,58.63
2018-10-17T17:23:21.222Z,59.29
2018-10-17T17:25:49.988Z,59.39
2018-10-17T17:28:18.659Z,59.05
2018-10-17T17:30:48.063Z,59.15
2018-10-17T17:33:16.765Z,58.89
2018-10-17T17:35:45.570Z,59.88
2018-10-17T17:38:14.313Z,60.23
2018-10-17T17:40:42.973Z,62.03
2018-10-17T17:43:11.790Z,61.17
2018-10-17T17:45:40.519Z,62.30
2018-10-17T17:48:09.217Z,63.05
2018-10-17T17:50:37.944Z,62.90
2018-10-17T17:53:06.586Z,64.03
2018-10-17T17:55:35.302Z,64.40
2018-10-17T17:58:04.136Z,64.58
2018-10-17T18:00:33.171Z,65.78
2018-10-17T18:03:02.002Z,66.11
2018-10-17T18:05:30.651Z,66.55
2018-10-17T18:07:59.308Z,66.48
2018-10-17T18:10:27.987Z,67.28
2018-10-17T18:12:56.630Z,67.57
2018-10-17T18:15:25.350Z,68.13
2018-10-17T18:17:54.103Z,68.43
2018-10-17T18:20:22.904Z,69.54
2018-10-17T18:22:51.570Z,69.27
2018-10-17T18:25:20.230Z,69.74
2018-10-17T18:27:49.446Z,70.93
2018-10-17T18:30:18.123Z,71.12
2018-10-17T18:32:46.779Z,71.60
2018-10-17T18:35:15.607Z,71.75
2018-10-17T18:37:44.368Z,72.15
2018-10-17T18:40:13.280Z,72.15
2018-10-17T18:42:42.211Z,72.26
2018-10-17T18:45:11.966Z,73.12
2018-10-17T18:47:40.877Z,73.39
2018-10-17T18:50:09.821Z,73.74
2018-10-17T18:52:38.939Z,73.99
2018-10-17T18:55:08.202Z,73.42
2018-10-17T18:57:37.004Z,73.74
2018-10-17T19:00:07.963Z,74.34
2018-10-17T19:02:36.674Z,74.23
2018-10-17T19:05:05.516Z,74.86
2018-10-17T19:07:34.187Z,74.70
2018-10-17T19:10:02.902Z,75.27
2018-10-17T19:12:31.616Z,75.34
2018-10-17T19:15:00.671Z,76.76
2018-10-17T19:17:29.538Z,77.14
2018-10-17T19:19:58.206Z,77.45
2018-10-17T19:22:29.121Z,77.50
2018-10-17T19:24:57.810Z,77.53
2018-10-17T19:27:27.120Z,78.63
2018-10-17T19:29:55.908Z,78.99
2018-10-17T19:32:25.142Z,78.98
2018-10-17T19:34:53.878Z,78.79
2018-10-17T19:37:22.729Z,79.27
2018-10-17T19:39:51.407Z,79.88
2018-10-17T19:42:20.098Z,79.51
2018-10-17T19:44:48.896Z,79.35
2018-10-17T19:47:17.752Z,79.99
2018-10-17T19:49:46.607Z,80.43
2018-10-17T19:52:15.451Z,79.97
2018-10-17T19:54:44.147Z,80.35
2018-10-17T19:57:13.010Z,80.33
2018-10-17T19:59:42.093Z,80.90
2018-10-17T20:02:10.927Z,80.71
2018-10-17T20:04:39.819Z,80.77
2018-10-17T20:07:08.828Z,81.87
2018-10-17T20:09:37.646Z,81.76
2018-10-17T20:12:07.782Z,81.98
2018-10-17T20:14:36.554Z,81.87
2018-10-17T20:17:06.187Z,82.51
2018-10-17T20:19:34.934Z,82.44
2018-10-17T20:22:03.723Z,82.58
2018-10-17T20:24:32.558Z,83.01
2018-10-17T20:27:03.465Z,82.51
2018-10-17T20:29:32.479Z,83.34
2018-10-17T20:32:01.362Z,82.78
2018-10-17T20:34:30.215Z,83.10
2018-10-17T20:36:59.117Z,82.53
2018-10-17T20:39:28.032Z,83.43
2018-10-17T20:41:56.905Z,83.49
2018-10-17T20:44:25.841Z,83.65
2018-10-17T20:46:54.653Z,83.30
2018-10-17T20:49:23.460Z,84.36
2018-10-17T20:51:52.193Z,84.90
